King Salmon, AK

11:39 AM AKDT on September 22, 2014 (GMT -0800)
Egegik | Change Station
CLOSE
Current Station
Airport
Location: Egegik,
Elevation: 92 ft
Nearby Weather Stations

Elev 92 ft 58.19 °N, 157.39 °W | Updated 3 minutes ago

Clear
Clear
45 °F
Feels Like 37 °F
N
17
Wind Variable Wind from North
Gusts 26 mph

Today
High -- | Low -- °F
--% Chance of Precip.
Yesterday
High -- | Low -- °F
Precip. -- in
8:20 AM 8:33 PM
Waning Crescent, 2% visible
Pressure 29.76 in
Visibility 10.0 miles
Clouds Clear
Windchill 37 °F
Dew Point 28 °F
Humidity 53%
Rainfall 0.00 in
Snow Depth 0 in , 3 in , 6 in
UV 2 out of 12
Pollen Not available.
Air Quality Not available.
Flu Activity Not available.
METAR PAII 221936Z AUTO 35015G23KT 10SM CLR 07/M02 A2976 RMK AO1

More Conditions Fewer Conditions

Pressure 29.76 in
Visibility 10.0 miles
Clouds Clear
Windchill 37 °F
Dew Point 28 °F
Humidity 53%
Rainfall 0.00 in
Snow Depth 0 in , 3 in , 6 in
UV 2 out of 12
Pollen Not available.
Air Quality Not available.
Flu Activity Not available.
METAR PAII 221936Z AUTO 35015G23KT 10SM CLR 07/M02 A2976 RMK AO1

More Conditions Fewer Conditions

10-Day Weather Forecast

Almanac

Astronomy

Sep. 22, 2014 Rise Set
Actual Time 8:20 AM AKDT 8:33 PM AKDT
Civil Twilight 7:41 AM AKDT 9:11 PM AKDT
Nautical Twilight 6:56 AM AKDT 9:56 PM AKDT
Astronomical Twilight 6:07 AM AKDT 10:44 PM AKDT
Moon 6:49 AM AKDT 7:51 PM AKDT
Length of Visible Light 13h 29m
Length of Day
12h 12m
Tomorrow will be 4m 48s shorter.
Waning Crescent, 2% of the Moon is Illuminated
Today
Waning Crescent
Sep 24
New
Oct 1
First Quarter
Oct 8
Full
Oct 15
Last Quarter

Today's Extremes

State Highs State Lows

Community

WunderPhotos

Upload Photos

1,755,514 photos uploaded!

WunderBlogs® & News

Nearby

Snow Depth

Station Depth Elevation
Granite Creek 0 in 1240 ft
MF Bradley River 3 in 2300 ft
Rocky Point 6 in 500 ft
Coldfoot 0 in 1040 ft
Turnagain Pass 2 in 1880 ft

Earthquake Activity

City Distance Mag. Time & Date
No recent earthquake activity has been reported nearby.
Minimum magnitude displayed is 2.5.

Coastal Water Temperatures

Place Temperature
No Stations Reporting

Nearby Weather Stations